createdAt,value
2023-03-19T00:00:31.436Z,16.85
2023-03-19T00:02:59.122Z,18.58
2023-03-19T00:05:26.654Z,16.50
2023-03-19T00:07:59.692Z,17.17
2023-03-19T00:10:27.877Z,15.77
2023-03-19T00:12:55.139Z,18.85
2023-03-19T00:15:22.532Z,15.23
2023-03-19T00:17:50.026Z,18.33
2023-03-19T00:20:18.417Z,16.30
2023-03-19T00:22:45.887Z,21.33
2023-03-19T00:25:13.121Z,14.63
2023-03-19T00:27:40.690Z,14.35
2023-03-19T00:30:11.526Z,15.82
2023-03-19T00:32:39.725Z,13.65
2023-03-19T00:35:08.900Z,14.15
2023-03-19T00:37:37.590Z,16.27
2023-03-19T00:40:06.034Z,15.95
2023-03-19T00:42:34.671Z,19.05
2023-03-19T00:45:02.044Z,15.02
2023-03-19T00:47:30.986Z,15.43
2023-03-19T00:49:58.380Z,13.85
2023-03-19T00:52:25.836Z,14.32
2023-03-19T00:54:53.100Z,15.30
2023-03-19T00:57:20.798Z,12.48
2023-03-19T00:59:48.274Z,16.17
2023-03-19T01:02:15.865Z,13.82
2023-03-19T01:04:43.901Z,12.88
2023-03-19T01:07:11.568Z,15.60
2023-03-19T01:09:39.665Z,15.70
2023-03-19T01:12:07.886Z,14.38
2023-03-19T01:14:35.199Z,11.85
2023-03-19T01:17:02.542Z,16.02
2023-03-19T01:19:30.445Z,17.95
2023-03-19T01:21:57.966Z,19.42
2023-03-19T01:24:30.371Z,15.32
2023-03-19T01:29:36.458Z,15.57
2023-03-19T01:32:14.931Z,15.93
2023-03-19T01:35:06.734Z,15.90
2023-03-19T01:37:34.092Z,20.92
2023-03-19T01:40:01.652Z,14.20
2023-03-19T01:42:30.861Z,14.30
2023-03-19T01:48:41.048Z,14.57
2023-03-19T01:51:16.362Z,16.20
2023-03-19T01:53:56.263Z,19.75
2023-03-19T01:56:36.500Z,15.18
2023-03-19T01:59:29.077Z,13.50
2023-03-19T02:02:31.550Z,16.23
2023-03-19T02:05:08.208Z,15.18
2023-03-19T02:07:37.424Z,14.82
2023-03-19T02:10:12.140Z,17.95
2023-03-19T02:12:39.969Z,14.55
2023-03-19T02:15:07.830Z,13.25
2023-03-19T02:17:35.467Z,13.50
2023-03-19T02:20:22.991Z,12.73
2023-03-19T02:23:04.174Z,18.50
2023-03-19T02:25:44.998Z,18.80
2023-03-19T02:28:16.433Z,15.65
2023-03-19T02:30:45.352Z,12.55
2023-03-19T02:33:18.661Z,15.57
2023-03-19T02:35:49.396Z,13.68
2023-03-19T02:38:22.443Z,14.85
2023-03-19T02:40:56.798Z,12.15
2023-03-19T02:43:24.322Z,12.13
2023-03-19T02:45:52.296Z,12.93
2023-03-19T02:48:19.859Z,11.95
2023-03-19T02:50:47.139Z,15.88
2023-03-19T02:53:16.013Z,12.45
2023-03-19T02:55:43.437Z,12.45
2023-03-19T02:58:11.307Z,10.50
2023-03-19T03:00:38.983Z,12.63
2023-03-19T03:03:07.764Z,13.38
2023-03-19T03:05:35.844Z,14.02
2023-03-19T03:08:04.836Z,15.95
2023-03-19T03:10:33.834Z,13.90
2023-03-19T03:13:01.699Z,15.65
2023-03-19T03:15:29.824Z,15.98
2023-03-19T03:17:57.670Z,15.80
2023-03-19T03:20:25.102Z,13.55
2023-03-19T03:22:53.798Z,14.43
2023-03-19T03:25:21.353Z,15.57
2023-03-19T03:27:48.848Z,19.27
2023-03-19T03:30:17.158Z,16.20
2023-03-19T03:32:44.547Z,14.68
2023-03-19T03:35:12.340Z,15.85
2023-03-19T03:37:39.946Z,16.50
2023-03-19T03:40:08.422Z,13.32
2023-03-19T03:42:37.588Z,13.55
2023-03-19T03:45:09.697Z,18.13
2023-03-19T03:47:37.852Z,15.50
2023-03-19T03:50:05.633Z,20.67
2023-03-19T03:52:34.303Z,14.13
2023-03-19T03:55:02.196Z,21.42
2023-03-19T03:57:30.047Z,16.50
2023-03-19T03:59:57.451Z,17.58
2023-03-19T04:02:25.330Z,17.42
2023-03-19T04:04:52.779Z,15.63
2023-03-19T04:07:20.870Z,17.17
2023-03-19T04:09:54.211Z,15.20
2023-03-19T04:12:21.897Z,13.85
2023-03-19T04:14:49.555Z,17.60
2023-03-19T04:17:17.124Z,17.67
2023-03-19T04:19:44.573Z,16.50
2023-03-19T04:22:11.871Z,19.00
2023-03-19T04:24:39.256Z,17.58
2023-03-19T04:27:08.442Z,15.73
2023-03-19T04:29:37.666Z,16.40
2023-03-19T04:32:05.531Z,18.67
2023-03-19T04:34:32.815Z,17.65
2023-03-19T04:37:00.165Z,16.02
2023-03-19T04:39:28.163Z,17.40
2023-03-19T04:41:55.754Z,17.02
2023-03-19T04:44:27.159Z,16.80
2023-03-19T04:46:55.072Z,17.27
2023-03-19T04:49:24.605Z,19.67
2023-03-19T04:51:52.541Z,15.20
2023-03-19T04:54:20.732Z,17.50
2023-03-19T04:56:48.252Z,16.10
2023-03-19T04:59:15.568Z,17.13
2023-03-19T05:01:43.631Z,18.55
2023-03-19T05:04:12.738Z,17.77
2023-03-19T05:06:40.105Z,17.52
2023-03-19T05:09:07.843Z,17.30
2023-03-19T05:11:35.211Z,17.77
2023-03-19T05:14:05.770Z,15.55
2023-03-19T05:16:59.193Z,18.92
2023-03-19T05:19:30.850Z,16.05
2023-03-19T05:21:58.332Z,16.52
2023-03-19T05:24:26.873Z,16.35
2023-03-19T05:26:56.317Z,20.38
2023-03-19T05:29:29.514Z,15.40
2023-03-19T05:32:16.071Z,15.18
2023-03-19T05:34:43.743Z,20.20
2023-03-19T05:37:11.532Z,15.80
2023-03-19T05:39:39.120Z,16.58
2023-03-19T05:42:09.338Z,16.73
2023-03-19T05:44:37.724Z,13.18
2023-03-19T05:47:17.736Z,15.15
2023-03-19T05:49:50.836Z,15.75
2023-03-19T05:52:19.431Z,17.85
2023-03-19T05:54:49.559Z,12.75
2023-03-19T05:57:37.325Z,14.55
2023-03-19T06:00:11.088Z,17.25
2023-03-19T06:02:38.685Z,15.75
2023-03-19T06:05:22.202Z,16.20
2023-03-19T06:07:52.000Z,17.75
2023-03-19T06:10:29.514Z,16.48
2023-03-19T06:12:59.335Z,15.82
2023-03-19T06:15:39.053Z,18.33
2023-03-19T06:18:23.938Z,14.85
2023-03-19T06:20:51.611Z,14.07
2023-03-19T06:23:19.296Z,15.50
2023-03-19T06:25:47.155Z,17.10
2023-03-19T06:28:15.039Z,15.20
2023-03-19T06:30:44.731Z,13.85
2023-03-19T06:33:32.446Z,16.35
2023-03-19T06:36:00.416Z,13.75
2023-03-19T06:38:29.417Z,13.18
2023-03-19T06:40:56.674Z,17.23
2023-03-19T06:43:23.937Z,11.48
2023-03-19T06:45:51.408Z,14.93
2023-03-19T06:48:18.960Z,12.65
2023-03-19T06:50:47.046Z,14.45
2023-03-19T06:53:15.070Z,15.55
2023-03-19T06:55:42.578Z,16.60
2023-03-19T06:58:09.788Z,14.60
2023-03-19T07:00:37.249Z,12.93
2023-03-19T07:03:04.852Z,17.23
2023-03-19T07:05:32.099Z,13.38
2023-03-19T07:07:59.705Z,15.40
2023-03-19T07:10:27.196Z,12.88
2023-03-19T07:12:54.466Z,12.93
2023-03-19T07:15:21.844Z,17.48
2023-03-19T07:17:49.862Z,11.77
2023-03-19T07:20:17.430Z,12.27
2023-03-19T07:22:44.754Z,12.15
2023-03-19T07:25:12.072Z,12.10
2023-03-19T07:27:39.448Z,16.23
2023-03-19T07:30:07.561Z,13.13
2023-03-19T07:32:34.911Z,11.57
2023-03-19T07:35:02.586Z,13.45
2023-03-19T07:37:29.828Z,9.35
2023-03-19T07:39:57.244Z,8.95
2023-03-19T07:42:24.852Z,10.15
2023-03-19T07:44:52.121Z,9.93
2023-03-19T07:47:28.528Z,13.07
2023-03-19T07:49:57.319Z,9.20
2023-03-19T07:52:26.055Z,9.68
2023-03-19T07:54:53.468Z,11.88
2023-03-19T07:57:21.102Z,14.13
2023-03-19T07:59:48.408Z,14.07
2023-03-19T08:02:17.197Z,13.15
2023-03-19T08:04:44.552Z,20.60
2023-03-19T08:07:12.873Z,14.88
2023-03-19T08:09:41.229Z,17.90
2023-03-19T08:12:08.957Z,13.15
2023-03-19T08:14:36.591Z,13.20
2023-03-19T08:17:03.889Z,13.70
2023-03-19T08:19:31.970Z,13.77
2023-03-19T08:21:59.317Z,14.55
2023-03-19T08:24:26.688Z,10.68
2023-03-19T08:26:54.069Z,11.23
2023-03-19T08:29:21.816Z,9.82
2023-03-19T08:31:49.142Z,10.32
2023-03-19T08:34:16.459Z,10.70
2023-03-19T08:36:43.777Z,9.45
2023-03-19T08:39:10.967Z,11.10
2023-03-19T08:41:38.374Z,9.90
2023-03-19T08:44:05.756Z,6.22
2023-03-19T08:46:33.787Z,10.80
2023-03-19T08:49:01.238Z,7.82
2023-03-19T08:51:31.143Z,7.15
2023-03-19T08:53:58.470Z,8.95
2023-03-19T08:56:25.766Z,8.18
2023-03-19T08:58:52.972Z,8.75
2023-03-19T09:01:20.272Z,5.65
2023-03-19T09:03:47.684Z,5.30
2023-03-19T09:06:14.957Z,5.82
2023-03-19T09:08:42.402Z,4.38
2023-03-19T09:11:11.086Z,4.90
2023-03-19T09:13:38.390Z,8.07
2023-03-19T09:16:06.714Z,6.68
2023-03-19T09:18:34.934Z,8.40
2023-03-19T09:21:02.538Z,6.53
2023-03-19T09:23:29.820Z,6.65
2023-03-19T09:25:57.275Z,6.18
2023-03-19T09:28:24.928Z,5.82
2023-03-19T09:30:52.369Z,6.18
2023-03-19T09:33:21.422Z,6.38
2023-03-19T09:35:53.865Z,6.00
2023-03-19T09:38:23.108Z,5.75
2023-03-19T09:41:21.577Z,6.20
2023-03-19T09:43:57.815Z,5.70
2023-03-19T09:46:44.583Z,4.93
2023-03-19T09:49:35.846Z,6.43
2023-03-19T09:52:20.520Z,4.20
2023-03-19T09:54:52.988Z,5.45
2023-03-19T09:57:20.372Z,4.10
2023-03-19T09:59:48.458Z,3.88
2023-03-19T10:02:37.966Z,4.68
2023-03-19T10:05:15.797Z,5.30
2023-03-19T10:08:13.134Z,4.60
2023-03-19T10:11:08.535Z,9.07
2023-03-19T10:14:21.352Z,6.00
2023-03-19T10:16:52.191Z,6.60
2023-03-19T10:19:24.502Z,6.45
2023-03-19T10:22:19.365Z,5.85
2023-03-19T10:24:48.470Z,7.00
2023-03-19T10:27:18.608Z,8.10
2023-03-19T10:29:46.471Z,13.20
2023-03-19T10:32:42.278Z,6.78
2023-03-19T10:35:43.733Z,7.35
2023-03-19T10:38:25.528Z,8.80
2023-03-19T10:41:22.038Z,10.18
2023-03-19T10:44:00.171Z,7.05
2023-03-19T10:46:27.704Z,9.88
2023-03-19T10:48:55.036Z,10.23
2023-03-19T10:51:27.142Z,12.93
2023-03-19T10:53:56.960Z,11.13
2023-03-19T10:56:30.390Z,14.45
2023-03-19T10:59:07.460Z,14.48
2023-03-19T11:01:42.117Z,15.57
2023-03-19T11:04:17.383Z,10.27
2023-03-19T11:06:53.525Z,9.77
2023-03-19T11:09:35.020Z,13.27
2023-03-19T11:12:19.442Z,9.32
2023-03-19T11:14:50.208Z,8.98
2023-03-19T11:17:28.036Z,10.05
2023-03-19T11:19:57.810Z,8.68
2023-03-19T11:22:37.782Z,7.18
2023-03-19T11:25:20.455Z,6.30
2023-03-19T11:28:03.719Z,8.98
2023-03-19T11:30:49.572Z,8.52
2023-03-19T11:33:47.933Z,6.95
2023-03-19T11:36:48.370Z,5.13
2023-03-19T11:39:22.341Z,11.18
2023-03-19T11:41:58.518Z,7.05
2023-03-19T11:44:52.166Z,8.40
2023-03-19T11:47:36.227Z,7.68
2023-03-19T11:50:20.641Z,16.08
2023-03-19T11:52:57.174Z,8.77
2023-03-19T11:55:46.166Z,8.98
2023-03-19T11:58:44.240Z,9.38
2023-03-19T12:01:25.516Z,7.00
2023-03-19T12:04:03.980Z,5.85
2023-03-19T12:06:35.029Z,6.40
2023-03-19T12:09:04.592Z,6.97
2023-03-19T12:11:55.434Z,6.07
2023-03-19T12:14:53.166Z,6.50
2023-03-19T12:17:45.922Z,5.97
2023-03-19T12:20:38.451Z,7.53
2023-03-19T12:23:57.100Z,6.28
2023-03-19T12:26:31.334Z,7.35
2023-03-19T12:29:04.675Z,7.85
2023-03-19T12:31:37.852Z,8.10
2023-03-19T12:34:16.968Z,6.45
2023-03-19T12:37:11.831Z,7.50
2023-03-19T12:39:45.652Z,6.85
2023-03-19T12:42:18.958Z,7.53
2023-03-19T12:44:55.370Z,6.82
2023-03-19T12:47:31.449Z,9.50
2023-03-19T12:50:09.747Z,7.88
2023-03-19T12:52:39.500Z,7.68
2023-03-19T12:55:12.599Z,7.38
2023-03-19T12:57:51.518Z,8.02
2023-03-19T13:00:28.738Z,5.90
2023-03-19T13:03:07.217Z,8.02
2023-03-19T13:05:44.897Z,6.05
2023-03-19T13:08:34.301Z,5.43
2023-03-19T13:11:08.791Z,6.97
2023-03-19T13:13:39.065Z,5.55
2023-03-19T13:16:31.112Z,7.18
2023-03-19T13:19:21.847Z,6.30
2023-03-19T13:21:52.976Z,6.40
2023-03-19T13:24:21.272Z,5.30
2023-03-19T13:26:50.384Z,6.53
2023-03-19T13:29:30.425Z,7.90
2023-03-19T13:32:22.649Z,5.78
2023-03-19T13:34:49.991Z,6.72
2023-03-19T13:37:20.876Z,7.47
2023-03-19T13:39:49.697Z,4.35
2023-03-19T13:42:55.836Z,4.78
2023-03-19T13:45:36.442Z,5.13
2023-03-19T13:48:25.015Z,6.40
2023-03-19T13:51:25.342Z,5.60
2023-03-19T13:54:23.627Z,5.88
2023-03-19T13:57:04.450Z,6.07
2023-03-19T13:59:34.764Z,5.20
2023-03-19T14:02:21.966Z,5.80
2023-03-19T14:04:57.300Z,7.75
2023-03-19T14:07:28.349Z,7.63
2023-03-19T14:10:00.017Z,7.22
2023-03-19T14:12:42.020Z,6.47
2023-03-19T14:15:09.470Z,6.35
2023-03-19T14:17:48.929Z,5.70
2023-03-19T14:20:19.891Z,7.30
2023-03-19T14:23:10.769Z,6.28
2023-03-19T14:25:57.141Z,6.32
2023-03-19T14:28:43.289Z,5.45
2023-03-19T14:31:33.948Z,5.75
2023-03-19T14:34:22.472Z,5.00
2023-03-19T14:36:54.942Z,5.10
2023-03-19T14:39:28.396Z,5.00
2023-03-19T14:42:07.212Z,4.28
2023-03-19T14:45:05.995Z,5.32
2023-03-19T14:47:56.303Z,4.85
2023-03-19T14:50:50.470Z,9.82
2023-03-19T14:53:32.731Z,7.07
2023-03-19T14:56:11.914Z,5.20
2023-03-19T14:58:51.429Z,4.78
2023-03-19T15:01:20.645Z,5.32
2023-03-19T15:03:55.123Z,5.78
2023-03-19T15:06:23.215Z,5.18
2023-03-19T15:08:50.959Z,6.90
2023-03-19T15:11:28.566Z,4.65
2023-03-19T15:14:17.233Z,6.57
2023-03-19T15:17:13.704Z,5.25
2023-03-19T15:19:41.525Z,4.60
2023-03-19T15:22:26.420Z,5.43
2023-03-19T15:24:53.767Z,5.65
2023-03-19T15:27:26.238Z,8.48
2023-03-19T15:29:54.206Z,6.72
2023-03-19T15:32:51.756Z,13.40
2023-03-19T15:35:19.776Z,13.18
2023-03-19T15:37:52.136Z,14.25
2023-03-19T15:40:22.516Z,5.22
2023-03-19T15:42:52.516Z,5.50
2023-03-19T15:45:24.532Z,5.63
2023-03-19T15:48:14.997Z,6.68
2023-03-19T15:50:45.545Z,5.63
2023-03-19T15:53:17.478Z,6.15
2023-03-19T15:55:48.341Z,5.00
2023-03-19T15:58:28.910Z,6.00
2023-03-19T16:00:59.521Z,7.15
2023-03-19T16:03:41.742Z,6.70
2023-03-19T16:06:22.012Z,6.53
2023-03-19T16:08:53.560Z,7.20
2023-03-19T16:11:44.736Z,7.03
2023-03-19T16:14:17.223Z,6.75
2023-03-19T16:16:51.985Z,7.03
2023-03-19T16:19:48.017Z,6.60
2023-03-19T16:22:24.572Z,6.65
2023-03-19T16:24:54.036Z,5.90
2023-03-19T16:27:38.873Z,6.43
2023-03-19T16:30:24.973Z,7.90
2023-03-19T16:33:03.926Z,7.75
2023-03-19T16:35:39.023Z,8.52
2023-03-19T16:38:14.260Z,7.30
2023-03-19T16:40:47.265Z,6.28
2023-03-19T16:43:18.581Z,8.93
2023-03-19T16:46:04.409Z,7.35
2023-03-19T16:48:32.456Z,6.45
2023-03-19T16:51:00.678Z,6.22
2023-03-19T16:53:32.223Z,7.63
2023-03-19T16:56:01.798Z,8.57
2023-03-19T16:58:38.258Z,8.25
2023-03-19T17:01:32.514Z,7.13
2023-03-19T17:04:00.473Z,9.13
2023-03-19T17:06:31.693Z,9.38
2023-03-19T17:08:59.256Z,7.10
2023-03-19T17:11:34.813Z,7.50
2023-03-19T17:14:03.537Z,7.80
2023-03-19T17:16:31.475Z,8.40
2023-03-19T17:18:59.622Z,10.43
2023-03-19T17:21:30.922Z,7.95
2023-03-19T17:23:59.729Z,7.43
2023-03-19T17:26:28.926Z,8.85
2023-03-19T17:28:59.097Z,11.18
2023-03-19T17:31:31.813Z,9.02
2023-03-19T17:34:06.073Z,9.10
2023-03-19T17:36:34.024Z,9.95
2023-03-19T17:39:01.885Z,8.80
2023-03-19T17:41:30.526Z,7.45
2023-03-19T17:43:58.097Z,10.35
2023-03-19T17:46:28.444Z,11.52
2023-03-19T17:48:56.322Z,9.40
2023-03-19T17:51:24.659Z,12.15
2023-03-19T17:53:54.611Z,9.35
2023-03-19T17:56:27.759Z,11.40
2023-03-19T17:58:55.331Z,9.75
2023-03-19T18:01:26.388Z,12.00
2023-03-19T18:03:55.587Z,11.40
2023-03-19T18:06:26.366Z,12.88
2023-03-19T18:08:53.813Z,12.05
2023-03-19T18:11:21.267Z,12.95
2023-03-19T18:13:49.466Z,11.10
2023-03-19T18:16:29.020Z,10.15
2023-03-19T18:19:04.647Z,7.38
2023-03-19T18:21:32.496Z,6.50
2023-03-19T18:24:01.650Z,6.57
2023-03-19T18:26:29.030Z,4.90
2023-03-19T18:28:56.596Z,6.78
2023-03-19T18:31:26.103Z,5.53
2023-03-19T18:34:14.164Z,5.40
2023-03-19T18:36:42.488Z,4.70
2023-03-19T18:39:15.596Z,4.70
2023-03-19T18:41:44.466Z,5.65
2023-03-19T18:44:12.505Z,5.63
2023-03-19T18:46:41.080Z,6.05
2023-03-19T18:49:11.570Z,4.40
2023-03-19T18:51:45.505Z,3.87
2023-03-19T18:54:22.512Z,4.82
2023-03-19T18:56:50.937Z,5.25
2023-03-19T18:59:23.754Z,4.90
2023-03-19T19:01:56.866Z,5.15
2023-03-19T19:04:26.292Z,7.90
2023-03-19T19:06:55.978Z,3.95
2023-03-19T19:09:23.851Z,5.03
2023-03-19T19:11:51.222Z,6.65
2023-03-19T19:14:24.315Z,5.60
2023-03-19T19:16:54.003Z,7.50
2023-03-19T19:19:24.232Z,6.60
2023-03-19T19:21:53.079Z,5.43
2023-03-19T19:24:21.311Z,10.35
2023-03-19T19:26:54.024Z,6.85
2023-03-19T19:29:27.313Z,5.32
2023-03-19T19:31:55.448Z,6.22
2023-03-19T19:34:23.627Z,6.22
2023-03-19T19:36:51.309Z,7.43
2023-03-19T19:39:19.091Z,8.55
2023-03-19T19:41:46.780Z,7.53
2023-03-19T19:44:19.147Z,10.27
2023-03-19T19:46:46.483Z,10.73
2023-03-19T19:49:15.626Z,6.63
2023-03-19T19:51:43.497Z,10.25
2023-03-19T19:54:10.965Z,10.25
2023-03-19T19:56:39.286Z,11.00
2023-03-19T19:59:08.056Z,10.50
2023-03-19T20:01:35.910Z,12.00
2023-03-19T20:04:04.471Z,14.25
2023-03-19T20:06:33.539Z,10.10
2023-03-19T20:09:01.150Z,12.68
2023-03-19T20:11:31.071Z,10.48
2023-03-19T20:13:58.519Z,11.73
2023-03-19T20:16:26.935Z,9.75
2023-03-19T20:18:55.403Z,7.93
2023-03-19T20:21:23.221Z,10.50
2023-03-19T20:23:55.577Z,11.80
2023-03-19T20:26:24.937Z,15.18
2023-03-19T20:28:53.050Z,9.55
2023-03-19T20:31:29.904Z,11.43
2023-03-19T20:33:58.035Z,10.25
2023-03-19T20:36:26.822Z,10.98
2023-03-19T20:38:54.697Z,11.18
2023-03-19T20:41:24.462Z,15.85
2023-03-19T20:43:52.286Z,15.60
2023-03-19T20:46:21.603Z,12.82
2023-03-19T20:48:50.083Z,18.00
2023-03-19T20:51:20.151Z,15.27
2023-03-19T20:53:49.828Z,14.45
2023-03-19T20:56:21.284Z,15.00
2023-03-19T20:58:48.834Z,11.95
2023-03-19T21:01:17.995Z,13.32
2023-03-19T21:03:45.904Z,11.00
2023-03-19T21:06:18.323Z,9.13
2023-03-19T21:08:57.244Z,11.98
2023-03-19T21:11:39.414Z,11.43
2023-03-19T21:14:08.025Z,12.77
2023-03-19T21:16:36.543Z,8.82
2023-03-19T21:19:05.672Z,7.93
2023-03-19T21:21:36.272Z,11.35
2023-03-19T21:24:10.524Z,12.35
2023-03-19T21:26:39.841Z,10.27
2023-03-19T21:29:26.230Z,9.82
2023-03-19T21:31:55.586Z,10.20
2023-03-19T21:34:22.865Z,9.38
2023-03-19T21:36:50.191Z,7.82
2023-03-19T21:39:17.883Z,8.27
2023-03-19T21:41:46.416Z,9.95
2023-03-19T21:44:18.278Z,10.45
2023-03-19T21:46:47.099Z,8.45
2023-03-19T21:49:14.917Z,7.13
2023-03-19T21:51:45.309Z,8.75
2023-03-19T21:54:12.686Z,9.10
2023-03-19T21:56:45.195Z,10.65
2023-03-19T21:59:19.369Z,9.60
2023-03-19T22:01:47.545Z,10.63
2023-03-19T22:04:15.205Z,8.55
2023-03-19T22:06:43.282Z,8.57
2023-03-19T22:09:10.696Z,7.60
2023-03-19T22:11:39.293Z,8.18
2023-03-19T22:14:12.631Z,9.95
2023-03-19T22:16:40.228Z,7.32
2023-03-19T22:19:09.268Z,7.88
2023-03-19T22:21:36.533Z,8.82
2023-03-19T22:24:04.031Z,9.32
2023-03-19T22:26:34.153Z,10.07
2023-03-19T22:29:04.366Z,10.18
2023-03-19T22:31:32.528Z,11.50
2023-03-19T22:34:00.012Z,12.48
2023-03-19T22:36:27.469Z,9.75
2023-03-19T22:38:54.917Z,8.25
2023-03-19T22:41:32.472Z,9.90
2023-03-19T22:44:02.113Z,8.60
2023-03-19T22:46:29.531Z,9.45
2023-03-19T22:48:57.102Z,10.02
2023-03-19T22:51:27.479Z,9.45
2023-03-19T22:53:55.606Z,10.57
2023-03-19T22:56:23.431Z,8.98
2023-03-19T22:58:50.985Z,9.18
2023-03-19T23:01:21.411Z,10.95
2023-03-19T23:03:49.871Z,12.30
2023-03-19T23:06:30.496Z,13.77
2023-03-19T23:08:58.617Z,12.40
2023-03-19T23:11:25.866Z,11.95
2023-03-19T23:13:56.017Z,14.07
2023-03-19T23:16:25.244Z,13.75
2023-03-19T23:21:21.570Z,14.50
2023-03-19T23:23:49.829Z,13.15
2023-03-19T23:26:29.882Z,13.63
2023-03-19T23:29:03.664Z,14.35
2023-03-19T23:31:32.020Z,11.88
2023-03-19T23:33:59.226Z,12.57
2023-03-19T23:36:26.832Z,12.50
2023-03-19T23:38:54.002Z,13.25
2023-03-19T23:41:25.245Z,12.05
2023-03-19T23:43:53.518Z,14.90
2023-03-19T23:46:21.775Z,11.90
2023-03-19T23:48:49.165Z,11.82
2023-03-19T23:51:17.471Z,13.27
2023-03-19T23:53:45.333Z,13.57
2023-03-19T23:56:25.546Z,11.02
